createdAt,value
2022-12-18T00:00:07.960Z,14.10
2022-12-18T00:02:41.577Z,12.20
2022-12-18T00:05:08.855Z,12.80
2022-12-18T00:07:36.405Z,12.00
2022-12-18T00:10:04.489Z,14.30
2022-12-18T00:12:31.545Z,16.00
2022-12-18T00:14:58.481Z,14.70
2022-12-18T00:17:25.568Z,11.60
2022-12-18T00:19:52.678Z,13.80
2022-12-18T00:22:19.724Z,10.60
2022-12-18T00:24:46.657Z,14.60
2022-12-18T00:27:15.129Z,12.90
2022-12-18T00:29:42.421Z,14.30
2022-12-18T00:32:09.459Z,12.80
2022-12-18T00:34:37.208Z,13.10
2022-12-18T00:37:04.348Z,14.20
2022-12-18T00:39:31.607Z,11.60
2022-12-18T00:42:18.918Z,15.60
2022-12-18T00:44:45.909Z,13.20
2022-12-18T00:47:13.699Z,15.30
2022-12-18T00:49:40.888Z,15.70
2022-12-18T00:52:07.928Z,15.10
2022-12-18T00:54:34.732Z,14.50
2022-12-18T00:57:01.879Z,12.30
2022-12-18T00:59:28.886Z,11.80
2022-12-18T01:01:56.300Z,13.90
2022-12-18T01:04:23.472Z,13.10
2022-12-18T01:06:50.685Z,14.00
2022-12-18T01:09:19.601Z,11.70
2022-12-18T01:11:46.709Z,16.00
2022-12-18T01:14:13.700Z,11.90
2022-12-18T01:16:43.795Z,13.50
2022-12-18T01:19:11.062Z,15.00
2022-12-18T01:21:38.244Z,13.90
2022-12-18T01:24:05.619Z,14.10
2022-12-18T01:26:32.862Z,13.10
2022-12-18T01:28:59.921Z,15.00
2022-12-18T01:31:31.657Z,17.40
2022-12-18T01:33:59.114Z,16.70
2022-12-18T01:36:27.972Z,17.00
2022-12-18T01:38:55.232Z,11.90
2022-12-18T01:41:24.419Z,11.20
2022-12-18T01:43:58.441Z,13.80
2022-12-18T01:46:27.460Z,11.50
2022-12-18T01:48:58.793Z,14.20
2022-12-18T01:51:27.118Z,16.10
2022-12-18T01:53:54.425Z,14.30
2022-12-18T01:56:21.932Z,12.60
2022-12-18T01:58:59.961Z,12.30
2022-12-18T02:01:27.018Z,11.50
2022-12-18T02:03:54.168Z,16.90
2022-12-18T02:06:37.497Z,13.20
2022-12-18T02:09:22.073Z,14.70
2022-12-18T02:12:08.652Z,12.70
2022-12-18T02:14:50.692Z,11.00
2022-12-18T02:17:26.459Z,11.40
2022-12-18T02:20:05.780Z,17.60
2022-12-18T06:31:40.852Z,10.00
2022-12-18T06:34:08.016Z,10.20
2022-12-18T06:36:35.349Z,9.20
2022-12-18T06:39:02.462Z,9.90
2022-12-18T06:41:29.590Z,9.00
2022-12-18T06:43:59.747Z,10.10
2022-12-18T06:46:27.070Z,7.90
2022-12-18T06:48:53.942Z,8.30
2022-12-18T06:51:21.574Z,9.80
2022-12-18T06:53:48.830Z,11.70
2022-12-18T06:56:15.732Z,10.90
2022-12-18T06:58:42.609Z,7.80
2022-12-18T07:01:11.407Z,7.60
2022-12-18T07:03:42.509Z,6.60
2022-12-18T07:06:17.302Z,10.80
2022-12-18T07:08:44.640Z,7.70
2022-12-18T07:11:11.837Z,8.80
2022-12-18T07:13:39.052Z,8.00
2022-12-18T07:16:17.157Z,7.00
2022-12-18T07:18:47.884Z,10.20
2022-12-18T07:21:16.257Z,9.30
2022-12-18T07:23:43.372Z,8.30
2022-12-18T07:26:12.746Z,8.80
2022-12-18T07:28:41.205Z,7.40
2022-12-18T07:31:12.724Z,6.80
2022-12-18T07:33:40.270Z,7.40
2022-12-18T07:36:08.128Z,7.50
2022-12-18T07:39:12.830Z,10.40
2022-12-18T07:41:46.671Z,6.50
2022-12-18T07:44:14.312Z,7.70
2022-12-18T07:46:41.341Z,7.80
2022-12-18T07:49:08.838Z,8.40
2022-12-18T07:51:36.532Z,13.00
2022-12-18T14:18:46.131Z,6.90
2022-12-18T14:21:23.417Z,6.80
2022-12-18T14:23:50.681Z,8.00
2022-12-18T14:26:26.402Z,6.90
2022-12-18T14:28:55.088Z,8.70
2022-12-18T14:31:31.757Z,6.60
2022-12-18T14:33:58.997Z,5.30
2022-12-18T14:36:28.019Z,5.80
2022-12-18T14:38:56.045Z,7.80
2022-12-18T14:41:23.730Z,4.50
2022-12-18T14:43:52.115Z,5.60
2022-12-18T14:46:38.197Z,8.40
2022-12-18T14:49:23.941Z,7.30
2022-12-18T14:52:01.400Z,7.70
2022-12-18T14:54:28.903Z,5.70
2022-12-18T14:57:02.074Z,5.80
2022-12-18T14:59:29.465Z,7.60
2022-12-18T15:02:09.357Z,7.10
2022-12-18T15:04:42.493Z,4.10
2022-12-18T15:07:19.408Z,7.00
2022-12-18T15:10:13.118Z,6.50
2022-12-18T15:12:44.864Z,5.30
2022-12-18T15:15:34.005Z,7.50
2022-12-18T15:18:04.354Z,4.30
2022-12-18T15:20:55.325Z,7.70
2022-12-18T15:23:41.964Z,5.40
2022-12-18T15:26:10.255Z,6.20
2022-12-18T15:28:53.896Z,4.80
2022-12-18T15:31:29.915Z,6.70
2022-12-18T15:33:56.861Z,6.10
2022-12-18T15:36:26.068Z,6.80
2022-12-18T15:38:59.509Z,5.00
2022-12-18T15:41:37.585Z,4.60
2022-12-18T15:44:16.609Z,5.30
2022-12-18T15:46:46.212Z,5.10
2022-12-18T15:49:13.083Z,8.90
2022-12-18T15:51:41.199Z,8.40
2022-12-18T15:54:12.321Z,7.80
2022-12-18T15:56:58.239Z,6.90
2022-12-18T15:59:25.909Z,7.60
2022-12-18T16:01:56.132Z,7.50
2022-12-18T16:04:24.788Z,7.00
2022-12-18T16:09:43.517Z,6.60
2022-12-18T16:12:24.843Z,5.30
2022-12-18T16:14:52.071Z,6.90
2022-12-18T16:17:19.547Z,4.50
2022-12-18T16:19:46.717Z,6.20
2022-12-18T16:22:24.209Z,6.40
2022-12-18T16:24:52.675Z,5.80
2022-12-18T16:27:20.104Z,3.90
2022-12-18T16:29:47.588Z,6.90
2022-12-18T16:32:16.529Z,5.50
2022-12-18T16:34:43.621Z,5.90
2022-12-18T16:37:12.010Z,6.60
2022-12-18T16:39:39.498Z,4.60
2022-12-18T16:48:07.081Z,7.00
2022-12-18T16:50:34.495Z,6.80
2022-12-18T16:53:01.994Z,9.30
2022-12-18T16:55:29.209Z,5.80
2022-12-18T16:57:56.489Z,7.80
2022-12-18T17:00:23.236Z,8.20
2022-12-18T22:31:30.657Z,6.80
2022-12-18T22:33:57.611Z,6.10
2022-12-18T22:36:25.034Z,7.60
2022-12-18T22:38:51.909Z,7.80
2022-12-18T22:41:21.035Z,7.10
2022-12-18T22:43:47.869Z,4.30
2022-12-18T22:46:18.609Z,6.40
2022-12-18T22:48:45.678Z,7.80
2022-12-18T22:51:17.651Z,7.70
2022-12-18T22:53:44.976Z,7.80
2022-12-18T22:56:21.076Z,6.90
2022-12-18T22:58:49.773Z,5.70
2022-12-18T23:01:22.500Z,6.30
2022-12-18T23:03:49.887Z,7.50
2022-12-18T23:06:17.506Z,8.40
2022-12-18T23:08:45.001Z,7.30
2022-12-18T23:11:12.048Z,5.10
2022-12-18T23:13:39.881Z,8.60
2022-12-18T23:16:08.743Z,5.30
2022-12-18T23:18:35.808Z,6.10
2022-12-18T23:21:07.419Z,9.30
2022-12-18T23:23:35.974Z,5.20
2022-12-18T23:26:08.111Z,6.70
2022-12-18T23:28:35.580Z,4.70
2022-12-18T23:31:06.416Z,7.90
2022-12-18T23:33:33.826Z,7.40
2022-12-18T23:36:01.888Z,9.20
2022-12-18T23:38:29.916Z,9.90
2022-12-18T23:40:57.411Z,5.30
2022-12-18T23:43:25.321Z,7.20
2022-12-18T23:45:55.816Z,5.10
2022-12-18T23:48:22.705Z,9.30
2022-12-18T23:50:49.729Z,6.70
2022-12-18T23:53:16.472Z,8.20
2022-12-18T23:55:44.028Z,5.20
2022-12-18T23:58:18.853Z,6.40
